Elton, PA

9:08 AM EDT on October 01, 2014 (GMT -0400)
Fifty Acre Road, Adams Twp | Change Station
CLOSE
Current Station
Personal Weather Station
Location: Johnstown, PA
Elevation: 2122 ft
Nearby Weather Stations

Elev 2122 ft 40.31 °N, 78.81 °W | Updated 2 minutes ago

Overcast
Overcast
55.6 °F
Feels Like 55.6 °F
N
0.0
Wind Variable Wind from North
Gusts 0.0 mph

Today
High -- | Low -- °F
--% Chance of Precip.
Yesterday
High -- | Low -- °F
Precip. -- in
7:11 AM 6:57 PM
Waxing Crescent, 47% visible
Pressure 30.03 in
Visibility 8.0 miles
Clouds Overcast 2300 ft
Dew Point 55 °F
Humidity 99%
Rainfall 0.00 in
Snow Depth Not available.
UV 0 out of 12
Pollen 1.70 out of 12
Air Quality Not available.
Flu Activity Not available.
METAR KJST 011254Z AUTO 15003KT 8SM OVC023 13/12 A3004 RMK AO2 SLP169 T01330122

More Conditions Fewer Conditions

Pressure 30.03 in
Visibility 8.0 miles
Clouds Overcast 2300 ft
Dew Point 55 °F
Humidity 99%
Rainfall 0.00 in
Snow Depth Not available.
UV 0 out of 12
Pollen 1.70 out of 12
Air Quality Not available.
Flu Activity Not available.
METAR KJST 011254Z AUTO 15003KT 8SM OVC023 13/12 A3004 RMK AO2 SLP169 T01330122

More Conditions Fewer Conditions

10-Day Weather Forecast

Almanac

Astronomy

Oct. 01, 2014 Rise Set
Actual Time 7:11 AM EDT 6:57 PM EDT
Civil Twilight 6:44 AM EDT 7:24 PM EDT
Nautical Twilight 6:12 AM EDT 7:56 PM EDT
Astronomical Twilight 5:41 AM EDT 8:27 PM EDT
Moon 2:11 PM EDT No Moon Set
Length of Visible Light 12h 40m
Length of Day
11h 45m
Tomorrow will be 2m 38s shorter.
Waxing Crescent, 47% of the Moon is Illuminated
Today
Waxing Crescent
Oct 1
First Quarter
Oct 8
Full
Oct 15
Last Quarter
Oct 23
New

Today's Extremes

State Highs State Lows

Community

WunderPhotos

Upload Photos

1,757,923 photos uploaded!

Nearby

Snow Depth

Station Depth Elevation
No new snow has been reported.

Earthquake Activity

City Distance Mag. Time & Date
No recent earthquake activity has been reported nearby.
Minimum magnitude displayed is 2.5.

Coastal Water Temperatures

Place Temperature
No Stations Reporting

Nearby Weather Stations